sensor_id;sensor_type;location;lat;lon;timestamp;pressure;altitude;pressure_sealevel;temperature;humidity
57900;BME280;60605;53.716;19.940;2023-10-19T00:02:50;99986.50;;;4.99;100.00
57900;BME280;60605;53.716;19.940;2023-10-19T00:08:02;99987.67;;;5.09;100.00
57900;BME280;60605;53.716;19.940;2023-10-19T00:13:17;99986.88;;;5.14;100.00
57900;BME280;60605;53.716;19.940;2023-10-19T00:18:22;99987.40;;;5.16;100.00
57900;BME280;60605;53.716;19.940;2023-10-19T00:23:25;99977.36;;;5.16;100.00
57900;BME280;60605;53.716;19.940;2023-10-19T00:28:32;99970.99;;;5.16;100.00
57900;BME280;60605;53.716;19.940;2023-10-19T00:33:39;99965.83;;;5.16;100.00
57900;BME280;60605;53.716;19.940;2023-10-19T00:38:42;99969.58;;;5.12;100.00
57900;BME280;60605;53.716;19.940;2023-10-19T00:44:00;99966.59;;;5.03;100.00
57900;BME280;60605;53.716;19.940;2023-10-19T00:49:07;99961.17;;;4.98;100.00
57900;BME280;60605;53.716;19.940;2023-10-19T00:54:32;99956.38;;;4.93;100.00
57900;BME280;60605;53.716;19.940;2023-10-19T00:59:41;99950.02;;;4.87;100.00
57900;BME280;60605;53.716;19.940;2023-10-19T01:04:57;99945.33;;;4.75;100.00
57900;BME280;60605;53.716;19.940;2023-10-19T01:10:09;99942.25;;;4.63;100.00
57900;BME280;60605;53.716;19.940;2023-10-19T01:15:17;99935.15;;;4.50;100.00
57900;BME280;60605;53.716;19.940;2023-10-19T01:20:30;99928.98;;;4.39;100.00
57900;BME280;60605;53.716;19.940;2023-10-19T01:25:48;99925.75;;;4.27;100.00
57900;BME280;60605;53.716;19.940;2023-10-19T01:31:00;99916.21;;;4.14;100.00
57900;BME280;60605;53.716;19.940;2023-10-19T01:36:10;99912.92;;;4.04;100.00
57900;BME280;60605;53.716;19.940;2023-10-19T01:41:14;99907.80;;;3.95;100.00
57900;BME280;60605;53.716;19.940;2023-10-19T01:46:20;99899.50;;;3.86;100.00
57900;BME280;60605;53.716;19.940;2023-10-19T01:51:32;99893.58;;;3.78;100.00
57900;BME280;60605;53.716;19.940;2023-10-19T01:56:42;99893.70;;;3.72;100.00
57900;BME280;60605;53.716;19.940;2023-10-19T02:01:46;99883.13;;;3.65;100.00
57900;BME280;60605;53.716;19.940;2023-10-19T02:06:51;99875.13;;;3.59;100.00
57900;BME280;60605;53.716;19.940;2023-10-19T02:11:56;99877.06;;;3.52;100.00
57900;BME280;60605;53.716;19.940;2023-10-19T02:17:01;99867.38;;;3.45;100.00
57900;BME280;60605;53.716;19.940;2023-10-19T02:22:05;99863.82;;;3.39;100.00
57900;BME280;60605;53.716;19.940;2023-10-19T02:27:15;99860.93;;;3.35;100.00
57900;BME280;60605;53.716;19.940;2023-10-19T02:32:34;99856.33;;;3.33;100.00
57900;BME280;60605;53.716;19.940;2023-10-19T02:37:38;99857.11;;;3.32;100.00
57900;BME280;60605;53.716;19.940;2023-10-19T02:42:42;99852.83;;;3.30;100.00
57900;BME280;60605;53.716;19.940;2023-10-19T02:47:46;99846.89;;;3.27;100.00
57900;BME280;60605;53.716;19.940;2023-10-19T02:52:49;99844.73;;;3.26;100.00
57900;BME280;60605;53.716;19.940;2023-10-19T02:57:52;99845.65;;;3.25;100.00
57900;BME280;60605;53.716;19.940;2023-10-19T03:02:56;99837.92;;;3.25;100.00
57900;BME280;60605;53.716;19.940;2023-10-19T03:08:01;99833.73;;;3.22;100.00
57900;BME280;60605;53.716;19.940;2023-10-19T03:13:08;99829.84;;;3.15;100.00
57900;BME280;60605;53.716;19.940;2023-10-19T03:18:12;99829.16;;;3.08;100.00
57900;BME280;60605;53.716;19.940;2023-10-19T03:23:16;99822.34;;;3.02;100.00
57900;BME280;60605;53.716;19.940;2023-10-19T03:28:19;99817.73;;;2.98;100.00
57900;BME280;60605;53.716;19.940;2023-10-19T03:33:22;99809.48;;;2.96;100.00
57900;BME280;60605;53.716;19.940;2023-10-19T03:38:30;99802.21;;;2.94;100.00
57900;BME280;60605;53.716;19.940;2023-10-19T03:43:39;99793.29;;;2.91;100.00
57900;BME280;60605;53.716;19.940;2023-10-19T03:48:44;99792.96;;;2.88;100.00
57900;BME280;60605;53.716;19.940;2023-10-19T03:53:49;99781.08;;;2.86;100.00
57900;BME280;60605;53.716;19.940;2023-10-19T03:58:57;99769.22;;;2.85;100.00
57900;BME280;60605;53.716;19.940;2023-10-19T04:04:02;99762.13;;;2.83;100.00
57900;BME280;60605;53.716;19.940;2023-10-19T04:09:05;99761.23;;;2.83;100.00
57900;BME280;60605;53.716;19.940;2023-10-19T04:14:09;99756.14;;;2.88;100.00
57900;BME280;60605;53.716;19.940;2023-10-19T04:19:13;99757.05;;;2.96;100.00
57900;BME280;60605;53.716;19.940;2023-10-19T04:24:19;99760.80;;;3.09;100.00
57900;BME280;60605;53.716;19.940;2023-10-19T04:29:23;99765.85;;;3.19;100.00
57900;BME280;60605;53.716;19.940;2023-10-19T04:34:30;99769.66;;;3.24;100.00
57900;BME280;60605;53.716;19.940;2023-10-19T04:39:34;99757.92;;;3.17;100.00
57900;BME280;60605;53.716;19.940;2023-10-19T04:44:37;99758.59;;;3.03;100.00
57900;BME280;60605;53.716;19.940;2023-10-19T04:49:41;99758.13;;;2.93;100.00
57900;BME280;60605;53.716;19.940;2023-10-19T04:54:44;99757.22;;;2.87;100.00
57900;BME280;60605;53.716;19.940;2023-10-19T04:59:48;99753.58;;;2.84;100.00
57900;BME280;60605;53.716;19.940;2023-10-19T05:04:51;99753.80;;;2.86;100.00
57900;BME280;60605;53.716;19.940;2023-10-19T05:09:55;99754.63;;;2.91;100.00
57900;BME280;60605;53.716;19.940;2023-10-19T05:14:59;99759.72;;;2.98;100.00
57900;BME280;60605;53.716;19.940;2023-10-19T05:20:02;99757.69;;;3.06;100.00
57900;BME280;60605;53.716;19.940;2023-10-19T05:25:08;99762.42;;;3.13;100.00
57900;BME280;60605;53.716;19.940;2023-10-19T05:30:12;99764.19;;;3.20;100.00
57900;BME280;60605;53.716;19.940;2023-10-19T05:35:16;99761.67;;;3.27;100.00
57900;BME280;60605;53.716;19.940;2023-10-19T05:40:25;99758.54;;;3.35;100.00
57900;BME280;60605;53.716;19.940;2023-10-19T05:45:33;99755.45;;;3.43;100.00
57900;BME280;60605;53.716;19.940;2023-10-19T05:50:43;99754.74;;;3.50;100.00
57900;BME280;60605;53.716;19.940;2023-10-19T05:55:47;99750.61;;;3.57;100.00
57900;BME280;60605;53.716;19.940;2023-10-19T06:00:50;99750.70;;;3.65;100.00
57900;BME280;60605;53.716;19.940;2023-10-19T06:05:56;99753.41;;;3.73;100.00
57900;BME280;60605;53.716;19.940;2023-10-19T06:10:59;99752.55;;;3.84;100.00
57900;BME280;60605;53.716;19.940;2023-10-19T06:16:04;99752.59;;;3.94;100.00
57900;BME280;60605;53.716;19.940;2023-10-19T06:21:07;99755.04;;;4.03;100.00
57900;BME280;60605;53.716;19.940;2023-10-19T06:26:11;99758.38;;;4.12;100.00
57900;BME280;60605;53.716;19.940;2023-10-19T06:31:15;99750.77;;;4.18;100.00
57900;BME280;60605;53.716;19.940;2023-10-19T06:36:18;99741.77;;;4.24;100.00
57900;BME280;60605;53.716;19.940;2023-10-19T06:41:22;99747.27;;;4.35;100.00
57900;BME280;60605;53.716;19.940;2023-10-19T06:46:27;99740.80;;;4.45;100.00
57900;BME280;60605;53.716;19.940;2023-10-19T06:51:30;99741.83;;;4.55;100.00
57900;BME280;60605;53.716;19.940;2023-10-19T06:56:35;99743.20;;;4.68;100.00
57900;BME280;60605;53.716;19.940;2023-10-19T07:01:40;99742.81;;;4.81;100.00
57900;BME280;60605;53.716;19.940;2023-10-19T07:06:44;99746.27;;;4.96;100.00
57900;BME280;60605;53.716;19.940;2023-10-19T07:11:47;99743.86;;;5.16;100.00
57900;BME280;60605;53.716;19.940;2023-10-19T07:16:51;99738.13;;;5.39;100.00
57900;BME280;60605;53.716;19.940;2023-10-19T07:21:54;99737.44;;;5.61;100.00
57900;BME280;60605;53.716;19.940;2023-10-19T07:27:01;99732.77;;;5.82;100.00
57900;BME280;60605;53.716;19.940;2023-10-19T07:32:24;99734.87;;;5.96;100.00
57900;BME280;60605;53.716;19.940;2023-10-19T07:37:29;99734.54;;;6.05;100.00
57900;BME280;60605;53.716;19.940;2023-10-19T07:42:32;99732.20;;;6.15;100.00
57900;BME280;60605;53.716;19.940;2023-10-19T07:47:41;99731.11;;;6.29;100.00
57900;BME280;60605;53.716;19.940;2023-10-19T07:52:52;99725.02;;;6.47;100.00
57900;BME280;60605;53.716;19.940;2023-10-19T07:57:56;99725.69;;;6.68;100.00
57900;BME280;60605;53.716;19.940;2023-10-19T08:03:03;99719.65;;;6.85;100.00
57900;BME280;60605;53.716;19.940;2023-10-19T08:08:10;99713.82;;;6.96;100.00
57900;BME280;60605;53.716;19.940;2023-10-19T08:13:16;99705.89;;;7.09;100.00
57900;BME280;60605;53.716;19.940;2023-10-19T08:18:20;99698.89;;;7.19;100.00
57900;BME280;60605;53.716;19.940;2023-10-19T08:23:23;99700.04;;;7.25;100.00
57900;BME280;60605;53.716;19.940;2023-10-19T08:28:31;99690.52;;;7.38;100.00
57900;BME280;60605;53.716;19.940;2023-10-19T08:33:35;99682.93;;;7.53;100.00
57900;BME280;60605;53.716;19.940;2023-10-19T08:38:41;99684.04;;;7.66;100.00
57900;BME280;60605;53.716;19.940;2023-10-19T08:43:46;99675.95;;;7.74;100.00
57900;BME280;60605;53.716;19.940;2023-10-19T08:48:55;99669.63;;;7.80;100.00
57900;BME280;60605;53.716;19.940;2023-10-19T08:54:01;99655.84;;;7.84;100.00
57900;BME280;60605;53.716;19.940;2023-10-19T08:59:05;99655.59;;;7.85;100.00
57900;BME280;60605;53.716;19.940;2023-10-19T09:04:12;99656.39;;;7.86;100.00
57900;BME280;60605;53.716;19.940;2023-10-19T09:09:17;99649.44;;;7.90;100.00
57900;BME280;60605;53.716;19.940;2023-10-19T09:14:33;99643.58;;;8.07;100.00
57900;BME280;60605;53.716;19.940;2023-10-19T09:19:38;99632.80;;;8.37;100.00
57900;BME280;60605;53.716;19.940;2023-10-19T09:24:43;99628.10;;;8.91;100.00
57900;BME280;60605;53.716;19.940;2023-10-19T09:29:49;99621.14;;;9.22;98.82
57900;BME280;60605;53.716;19.940;2023-10-19T09:34:55;99613.91;;;9.34;96.85
57900;BME280;60605;53.716;19.940;2023-10-19T09:39:59;99598.02;;;9.46;92.53
57900;BME280;60605;53.716;19.940;2023-10-19T09:45:05;99582.17;;;9.66;90.02
57900;BME280;60605;53.716;19.940;2023-10-19T09:50:09;99572.41;;;9.93;87.89
57900;BME280;60605;53.716;19.940;2023-10-19T09:55:31;99565.98;;;10.19;86.96
57900;BME280;60605;53.716;19.940;2023-10-19T10:00:36;99567.38;;;10.50;85.14
57900;BME280;60605;53.716;19.940;2023-10-19T10:10:47;99549.52;;;10.53;82.82
57900;BME280;60605;53.716;19.940;2023-10-19T10:15:55;99550.50;;;10.28;81.87
57900;BME280;60605;53.716;19.940;2023-10-19T10:21:05;99545.02;;;9.99;82.22
57900;BME280;60605;53.716;19.940;2023-10-19T10:26:10;99535.75;;;9.78;83.18
57900;BME280;60605;53.716;19.940;2023-10-19T10:31:21;99526.74;;;9.70;84.59
57900;BME280;60605;53.716;19.940;2023-10-19T10:36:25;99525.55;;;9.77;85.03
57900;BME280;60605;53.716;19.940;2023-10-19T10:41:29;99513.85;;;9.79;83.41
57900;BME280;60605;53.716;19.940;2023-10-19T10:46:33;99500.37;;;9.80;83.53
57900;BME280;60605;53.716;19.940;2023-10-19T10:51:39;99494.61;;;9.82;83.31
57900;BME280;60605;53.716;19.940;2023-10-19T10:56:43;99486.64;;;9.78;83.03
57900;BME280;60605;53.716;19.940;2023-10-19T11:01:47;99477.54;;;9.80;83.31
57900;BME280;60605;53.716;19.940;2023-10-19T11:06:51;99476.27;;;9.70;82.13
57900;BME280;60605;53.716;19.940;2023-10-19T11:11:56;99472.61;;;9.60;82.25
57900;BME280;60605;53.716;19.940;2023-10-19T11:17:12;99476.08;;;9.51;82.75
57900;BME280;60605;53.716;19.940;2023-10-19T11:22:18;99464.90;;;9.44;83.49
57900;BME280;60605;53.716;19.940;2023-10-19T11:32:36;99454.90;;;9.43;83.29
57900;BME280;60605;53.716;19.940;2023-10-19T11:42:49;99449.71;;;9.36;83.76
57900;BME280;60605;53.716;19.940;2023-10-19T11:47:55;99441.23;;;9.33;83.64
57900;BME280;60605;53.716;19.940;2023-10-19T11:53:00;99438.31;;;9.15;83.76
57900;BME280;60605;53.716;19.940;2023-10-19T11:58:03;99437.63;;;8.95;84.66
57900;BME280;60605;53.716;19.940;2023-10-19T12:03:07;99438.92;;;8.81;85.81
57900;BME280;60605;53.716;19.940;2023-10-19T12:08:10;99437.64;;;8.72;86.35
57900;BME280;60605;53.716;19.940;2023-10-19T12:13:14;99432.48;;;8.63;86.56
57900;BME280;60605;53.716;19.940;2023-10-19T12:18:19;99427.21;;;8.54;86.82
57900;BME280;60605;53.716;19.940;2023-10-19T12:23:23;99420.20;;;8.61;87.10
57900;BME280;60605;53.716;19.940;2023-10-19T12:28:27;99413.48;;;8.69;86.44
57900;BME280;60605;53.716;19.940;2023-10-19T12:33:30;99406.73;;;8.74;86.30
57900;BME280;60605;53.716;19.940;2023-10-19T12:38:34;99404.08;;;8.74;86.63
57900;BME280;60605;53.716;19.940;2023-10-19T12:43:37;99399.49;;;8.69;86.49
57900;BME280;60605;53.716;19.940;2023-10-19T12:48:40;99399.89;;;8.62;87.03
57900;BME280;60605;53.716;19.940;2023-10-19T12:53:44;99386.05;;;8.56;87.31
57900;BME280;60605;53.716;19.940;2023-10-19T12:58:49;99373.89;;;8.50;87.68
57900;BME280;60605;53.716;19.940;2023-10-19T13:03:53;99358.72;;;8.46;87.92
57900;BME280;60605;53.716;19.940;2023-10-19T13:08:56;99354.48;;;8.45;88.78
57900;BME280;60605;53.716;19.940;2023-10-19T13:14:00;99353.64;;;8.42;89.06
57900;BME280;60605;53.716;19.940;2023-10-19T13:19:04;99356.48;;;8.32;89.01
57900;BME280;60605;53.716;19.940;2023-10-19T13:24:18;99353.60;;;8.19;89.74
57900;BME280;60605;53.716;19.940;2023-10-19T13:29:23;99346.29;;;8.09;90.76
57900;BME280;60605;53.716;19.940;2023-10-19T13:34:27;99340.39;;;8.00;91.11
57900;BME280;60605;53.716;19.940;2023-10-19T13:39:30;99342.08;;;7.96;91.24
57900;BME280;60605;53.716;19.940;2023-10-19T13:44:34;99337.05;;;7.92;90.97
57900;BME280;60605;53.716;19.940;2023-10-19T13:49:39;99336.69;;;7.88;90.22
57900;BME280;60605;53.716;19.940;2023-10-19T13:54:43;99331.98;;;7.86;90.13
57900;BME280;60605;53.716;19.940;2023-10-19T13:59:46;99334.99;;;7.82;89.37
57900;BME280;60605;53.716;19.940;2023-10-19T14:04:50;99332.07;;;7.78;89.14
57900;BME280;60605;53.716;19.940;2023-10-19T14:09:54;99328.03;;;7.76;89.36
57900;BME280;60605;53.716;19.940;2023-10-19T14:14:57;99323.45;;;7.74;89.86
57900;BME280;60605;53.716;19.940;2023-10-19T14:20:03;99321.04;;;7.72;90.38
57900;BME280;60605;53.716;19.940;2023-10-19T14:25:10;99316.24;;;7.68;90.07
57900;BME280;60605;53.716;19.940;2023-10-19T14:30:21;99313.55;;;7.63;89.79
57900;BME280;60605;53.716;19.940;2023-10-19T14:35:25;99313.73;;;7.60;90.39
57900;BME280;60605;53.716;19.940;2023-10-19T14:40:28;99312.79;;;7.57;90.66
57900;BME280;60605;53.716;19.940;2023-10-19T14:45:32;99307.90;;;7.54;90.31
57900;BME280;60605;53.716;19.940;2023-10-19T14:50:36;99308.58;;;7.51;89.70
57900;BME280;60605;53.716;19.940;2023-10-19T14:55:43;99310.48;;;7.48;89.87
57900;BME280;60605;53.716;19.940;2023-10-19T15:00:48;99316.84;;;7.46;90.61
57900;BME280;60605;53.716;19.940;2023-10-19T15:05:58;99310.75;;;7.41;91.68
57900;BME280;60605;53.716;19.940;2023-10-19T15:11:02;99303.08;;;7.36;92.53
57900;BME280;60605;53.716;19.940;2023-10-19T15:16:09;99295.57;;;7.30;93.18
57900;BME280;60605;53.716;19.940;2023-10-19T15:21:13;99291.33;;;7.22;93.57
57900;BME280;60605;53.716;19.940;2023-10-19T15:26:17;99287.21;;;7.15;94.03
57900;BME280;60605;53.716;19.940;2023-10-19T15:31:21;99292.73;;;7.10;94.29
57900;BME280;60605;53.716;19.940;2023-10-19T15:36:25;99290.34;;;7.04;94.52
57900;BME280;60605;53.716;19.940;2023-10-19T15:41:29;99273.31;;;6.97;94.75
57900;BME280;60605;53.716;19.940;2023-10-19T15:46:32;99267.20;;;6.91;95.06
57900;BME280;60605;53.716;19.940;2023-10-19T15:51:40;99267.23;;;6.85;95.36
57900;BME280;60605;53.716;19.940;2023-10-19T15:56:45;99258.13;;;6.80;95.57
57900;BME280;60605;53.716;19.940;2023-10-19T16:01:49;99266.21;;;6.76;95.68
57900;BME280;60605;53.716;19.940;2023-10-19T16:06:53;99260.05;;;6.72;95.75
57900;BME280;60605;53.716;19.940;2023-10-19T16:11:56;99254.42;;;6.68;95.64
57900;BME280;60605;53.716;19.940;2023-10-19T16:17:01;99247.55;;;6.66;95.91
57900;BME280;60605;53.716;19.940;2023-10-19T16:22:05;99240.14;;;6.62;95.94
57900;BME280;60605;53.716;19.940;2023-10-19T16:27:09;99245.12;;;6.58;95.86
57900;BME280;60605;53.716;19.940;2023-10-19T16:32:13;99245.29;;;6.55;95.83
57900;BME280;60605;53.716;19.940;2023-10-19T16:37:17;99238.97;;;6.53;95.96
57900;BME280;60605;53.716;19.940;2023-10-19T16:42:22;99242.31;;;6.50;95.90
57900;BME280;60605;53.716;19.940;2023-10-19T16:47:25;99247.67;;;6.47;95.94
57900;BME280;60605;53.716;19.940;2023-10-19T16:52:28;99248.98;;;6.45;95.97
57900;BME280;60605;53.716;19.940;2023-10-19T16:57:32;99250.45;;;6.43;95.91
57900;BME280;60605;53.716;19.940;2023-10-19T17:02:36;99257.89;;;6.41;95.77
57900;BME280;60605;53.716;19.940;2023-10-19T17:07:41;99252.67;;;6.38;95.70
57900;BME280;60605;53.716;19.940;2023-10-19T17:12:44;99243.67;;;6.36;95.71
57900;BME280;60605;53.716;19.940;2023-10-19T17:17:48;99242.23;;;6.34;95.70
57900;BME280;60605;53.716;19.940;2023-10-19T17:22:52;99225.11;;;6.32;95.72
57900;BME280;60605;53.716;19.940;2023-10-19T17:27:56;99215.40;;;6.30;95.59
57900;BME280;60605;53.716;19.940;2023-10-19T17:33:01;99221.64;;;6.27;95.48
57900;BME280;60605;53.716;19.940;2023-10-19T17:38:13;99224.95;;;6.24;95.21
57900;BME280;60605;53.716;19.940;2023-10-19T17:43:17;99223.38;;;6.22;95.44
57900;BME280;60605;53.716;19.940;2023-10-19T17:48:20;99214.58;;;6.20;95.52
57900;BME280;60605;53.716;19.940;2023-10-19T17:53:23;99213.08;;;6.17;95.37
57900;BME280;60605;53.716;19.940;2023-10-19T17:58:27;99228.92;;;6.15;95.21
57900;BME280;60605;53.716;19.940;2023-10-19T18:03:31;99229.31;;;6.15;95.29
57900;BME280;60605;53.716;19.940;2023-10-19T18:08:34;99231.04;;;6.13;95.30
57900;BME280;60605;53.716;19.940;2023-10-19T18:13:41;99228.11;;;6.11;95.23
57900;BME280;60605;53.716;19.940;2023-10-19T18:18:45;99227.66;;;6.08;95.30
57900;BME280;60605;53.716;19.940;2023-10-19T18:23:51;99235.42;;;6.07;95.20
57900;BME280;60605;53.716;19.940;2023-10-19T18:28:55;99237.15;;;6.04;94.93
57900;BME280;60605;53.716;19.940;2023-10-19T18:33:58;99232.17;;;6.00;94.48
57900;BME280;60605;53.716;19.940;2023-10-19T18:39:06;99230.73;;;5.97;94.63
57900;BME280;60605;53.716;19.940;2023-10-19T18:44:11;99228.45;;;5.93;94.63
57900;BME280;60605;53.716;19.940;2023-10-19T18:49:15;99225.58;;;5.90;94.76
57900;BME280;60605;53.716;19.940;2023-10-19T18:54:18;99214.33;;;5.85;94.49
57900;BME280;60605;53.716;19.940;2023-10-19T18:59:23;99211.23;;;5.81;94.03
57900;BME280;60605;53.716;19.940;2023-10-19T19:04:27;99210.18;;;5.77;93.94
57900;BME280;60605;53.716;19.940;2023-10-19T19:09:30;99205.85;;;5.74;93.76
57900;BME280;60605;53.716;19.940;2023-10-19T19:14:34;99199.92;;;5.69;93.50
57900;BME280;60605;53.716;19.940;2023-10-19T19:19:37;99197.95;;;5.66;93.69
57900;BME280;60605;53.716;19.940;2023-10-19T19:24:41;99193.98;;;5.63;93.27
57900;BME280;60605;53.716;19.940;2023-10-19T19:29:46;99185.35;;;5.61;93.23
57900;BME280;60605;53.716;19.940;2023-10-19T19:34:52;99175.63;;;5.59;93.16
57900;BME280;60605;53.716;19.940;2023-10-19T19:39:55;99173.54;;;5.59;93.29
57900;BME280;60605;53.716;19.940;2023-10-19T19:44:58;99180.36;;;5.58;93.38
57900;BME280;60605;53.716;19.940;2023-10-19T19:50:04;99178.15;;;5.57;93.69
57900;BME280;60605;53.716;19.940;2023-10-19T19:55:10;99171.52;;;5.56;93.70
57900;BME280;60605;53.716;19.940;2023-10-19T20:00:17;99163.95;;;5.55;93.99
57900;BME280;60605;53.716;19.940;2023-10-19T20:05:21;99152.09;;;5.54;94.22
57900;BME280;60605;53.716;19.940;2023-10-19T20:10:36;99144.52;;;5.51;94.26
57900;BME280;60605;53.716;19.940;2023-10-19T20:15:42;99145.61;;;5.49;94.42
57900;BME280;60605;53.716;19.940;2023-10-19T20:20:46;99142.02;;;5.48;94.50
57900;BME280;60605;53.716;19.940;2023-10-19T20:25:49;99141.05;;;5.47;94.54
57900;BME280;60605;53.716;19.940;2023-10-19T20:30:54;99146.33;;;5.45;94.37
57900;BME280;60605;53.716;19.940;2023-10-19T20:35:59;99140.55;;;5.42;94.26
57900;BME280;60605;53.716;19.940;2023-10-19T20:41:02;99123.64;;;5.41;94.29
57900;BME280;60605;53.716;19.940;2023-10-19T20:46:06;99113.84;;;5.41;94.16
57900;BME280;60605;53.716;19.940;2023-10-19T20:51:17;99118.94;;;5.39;94.13
57900;BME280;60605;53.716;19.940;2023-10-19T20:56:21;99108.46;;;5.37;94.04
57900;BME280;60605;53.716;19.940;2023-10-19T21:01:26;99101.93;;;5.35;94.11
57900;BME280;60605;53.716;19.940;2023-10-19T21:06:30;99089.83;;;5.34;94.21
57900;BME280;60605;53.716;19.940;2023-10-19T21:11:35;99085.67;;;5.33;94.38
57900;BME280;60605;53.716;19.940;2023-10-19T21:16:39;99087.98;;;5.31;94.54
57900;BME280;60605;53.716;19.940;2023-10-19T21:21:43;99082.27;;;5.28;94.82
57900;BME280;60605;53.716;19.940;2023-10-19T21:26:46;99085.67;;;5.24;95.66
57900;BME280;60605;53.716;19.940;2023-10-19T21:31:51;99084.34;;;5.18;96.53
57900;BME280;60605;53.716;19.940;2023-10-19T21:36:55;99082.13;;;5.12;97.44
57900;BME280;60605;53.716;19.940;2023-10-19T21:41:59;99069.04;;;5.03;99.10
57900;BME280;60605;53.716;19.940;2023-10-19T21:47:04;99058.75;;;4.92;99.91
57900;BME280;60605;53.716;19.940;2023-10-19T21:52:07;99052.02;;;4.81;100.00
57900;BME280;60605;53.716;19.940;2023-10-19T21:57:11;99054.00;;;4.72;100.00
57900;BME280;60605;53.716;19.940;2023-10-19T22:02:14;99055.13;;;4.64;100.00
57900;BME280;60605;53.716;19.940;2023-10-19T22:07:20;99054.88;;;4.56;100.00
57900;BME280;60605;53.716;19.940;2023-10-19T22:12:23;99049.44;;;4.48;100.00
57900;BME280;60605;53.716;19.940;2023-10-19T22:17:29;99032.88;;;4.38;100.00
57900;BME280;60605;53.716;19.940;2023-10-19T22:22:34;99022.14;;;4.28;100.00
57900;BME280;60605;53.716;19.940;2023-10-19T22:27:40;99014.34;;;4.21;100.00
57900;BME280;60605;53.716;19.940;2023-10-19T22:32:43;99011.42;;;4.14;100.00
57900;BME280;60605;53.716;19.940;2023-10-19T22:37:48;99002.83;;;4.09;100.00
57900;BME280;60605;53.716;19.940;2023-10-19T22:42:52;99009.08;;;4.04;100.00
57900;BME280;60605;53.716;19.940;2023-10-19T22:47:58;99003.38;;;4.01;100.00
57900;BME280;60605;53.716;19.940;2023-10-19T22:53:05;98988.71;;;3.99;100.00
57900;BME280;60605;53.716;19.940;2023-10-19T22:58:09;98985.47;;;3.96;100.00
57900;BME280;60605;53.716;19.940;2023-10-19T23:03:13;98981.96;;;3.94;100.00
57900;BME280;60605;53.716;19.940;2023-10-19T23:08:17;98971.81;;;3.93;100.00
57900;BME280;60605;53.716;19.940;2023-10-19T23:13:20;98969.46;;;3.92;100.00
57900;BME280;60605;53.716;19.940;2023-10-19T23:18:25;98962.89;;;3.90;100.00
57900;BME280;60605;53.716;19.940;2023-10-19T23:23:29;98969.36;;;3.89;100.00
57900;BME280;60605;53.716;19.940;2023-10-19T23:28:33;98978.08;;;3.88;100.00
57900;BME280;60605;53.716;19.940;2023-10-19T23:33:37;98980.70;;;3.89;100.00
57900;BME280;60605;53.716;19.940;2023-10-19T23:38:40;98980.83;;;3.89;100.00
57900;BME280;60605;53.716;19.940;2023-10-19T23:43:44;98991.36;;;3.90;100.00
57900;BME280;60605;53.716;19.940;2023-10-19T23:48:47;98997.42;;;3.89;100.00
57900;BME280;60605;53.716;19.940;2023-10-19T23:53:50;98994.69;;;3.88;100.00
57900;BME280;60605;53.716;19.940;2023-10-19T23:58:53;98992.83;;;3.87;100.00
